createdAt,value
2022-09-13T00:00:16.463Z,4.57
2022-09-13T00:02:20.959Z,5.68
2022-09-13T00:04:26.995Z,5.07
2022-09-13T00:06:31.090Z,4.53
2022-09-13T00:08:35.473Z,4.78
2022-09-13T00:10:41.339Z,5.15
2022-09-13T00:12:45.803Z,4.78
2022-09-13T00:14:50.436Z,5.10
2022-09-13T00:16:55.198Z,5.28
2022-09-13T00:19:01.617Z,4.50
2022-09-13T00:21:09.859Z,5.10
2022-09-13T00:23:14.785Z,5.13
2022-09-13T00:25:19.798Z,5.68
2022-09-13T00:27:24.001Z,6.65
2022-09-13T00:29:29.194Z,8.35
2022-09-13T00:31:33.568Z,8.93
2022-09-13T00:33:38.510Z,9.98
2022-09-13T00:35:43.049Z,9.82
2022-09-13T00:37:49.355Z,9.57
2022-09-13T00:39:53.565Z,10.75
2022-09-13T00:41:58.499Z,10.02
2022-09-13T00:44:03.814Z,10.00
2022-09-13T00:46:08.851Z,10.90
2022-09-13T00:48:20.214Z,11.32
2022-09-13T00:50:30.241Z,11.48
2022-09-13T00:52:36.930Z,10.27
2022-09-13T00:54:45.922Z,10.48
2022-09-13T00:56:55.169Z,11.02
2022-09-13T00:59:03.506Z,11.45
2022-09-13T01:01:11.441Z,11.18
2022-09-13T01:03:17.263Z,10.30
2022-09-13T01:05:26.648Z,9.65
2022-09-13T01:07:30.812Z,9.98
2022-09-13T01:09:40.200Z,9.57
2022-09-13T01:11:50.931Z,9.00
2022-09-13T01:13:56.666Z,8.93
2022-09-13T01:16:01.693Z,9.00
2022-09-13T01:18:07.780Z,8.38
2022-09-13T01:20:14.895Z,8.50
2022-09-13T01:22:52.055Z,7.28
2022-09-13T01:25:23.937Z,8.93
2022-09-13T01:27:39.426Z,7.90
2022-09-13T01:30:14.512Z,7.93
2022-09-13T01:32:29.540Z,6.65
2022-09-13T01:34:47.290Z,7.32
2022-09-13T01:37:12.383Z,7.28
2022-09-13T01:39:23.698Z,8.02
2022-09-13T01:41:44.203Z,6.93
2022-09-13T01:43:58.451Z,6.43
2022-09-13T01:46:07.916Z,6.63
2022-09-13T01:48:20.399Z,6.10
2022-09-13T01:50:33.433Z,6.13
2022-09-13T01:52:46.260Z,6.70
2022-09-13T01:54:59.281Z,6.97
2022-09-13T01:57:11.193Z,6.07
2022-09-13T01:59:20.402Z,7.20
2022-09-13T02:01:30.396Z,6.30
2022-09-13T02:03:41.334Z,6.45
2022-09-13T02:05:52.062Z,6.40
2022-09-13T02:08:01.469Z,5.82
2022-09-13T02:10:10.225Z,5.95
2022-09-13T02:12:19.874Z,6.47
2022-09-13T02:14:30.300Z,6.32
2022-09-13T02:16:40.117Z,5.65
2022-09-13T02:18:49.067Z,6.43
2022-09-13T02:20:56.479Z,5.25
2022-09-13T02:23:04.685Z,5.93
2022-09-13T02:25:11.819Z,6.00
2022-09-13T02:27:20.703Z,6.07
2022-09-13T02:29:29.174Z,6.20
2022-09-13T02:31:42.106Z,5.60
2022-09-13T02:33:51.143Z,5.53
2022-09-13T02:36:01.189Z,5.32
2022-09-13T02:38:10.616Z,5.60
2022-09-13T02:40:23.571Z,5.10
2022-09-13T02:42:36.748Z,5.15
2022-09-13T02:44:45.126Z,5.13
2022-09-13T02:47:14.934Z,5.47
2022-09-13T02:49:26.896Z,5.13
2022-09-13T02:51:36.282Z,5.00
2022-09-13T02:53:45.821Z,5.35
2022-09-13T02:55:56.725Z,4.68
2022-09-13T02:58:09.086Z,4.78
2022-09-13T03:00:14.131Z,4.07
2022-09-13T03:02:24.651Z,4.72
2022-09-13T03:04:30.024Z,4.45
2022-09-13T03:06:34.524Z,4.55
2022-09-13T03:08:39.693Z,5.47
2022-09-13T03:10:53.124Z,4.50
2022-09-13T03:13:37.624Z,4.88
2022-09-13T03:15:53.793Z,4.55
2022-09-13T03:18:11.746Z,4.47
2022-09-13T03:20:26.463Z,4.15
2022-09-13T03:23:00.580Z,5.05
2022-09-13T03:25:10.913Z,4.50
2022-09-13T03:27:20.986Z,4.88
2022-09-13T03:29:34.848Z,4.78
2022-09-13T03:31:46.364Z,4.55
2022-09-13T03:34:00.991Z,5.03
2022-09-13T03:36:13.737Z,4.47
2022-09-13T03:38:21.568Z,4.32
2022-09-13T03:40:37.808Z,4.78
2022-09-13T03:42:48.516Z,4.32
2022-09-13T03:44:56.320Z,4.63
2022-09-13T03:47:05.697Z,4.88
2022-09-13T03:49:15.591Z,4.00
2022-09-13T03:51:20.682Z,4.32
2022-09-13T03:53:28.772Z,4.80
2022-09-13T03:55:36.694Z,4.40
2022-09-13T03:57:40.955Z,4.82
2022-09-13T03:59:48.346Z,3.95
2022-09-13T04:01:52.879Z,4.18
2022-09-13T04:03:57.454Z,3.80
2022-09-13T04:06:03.203Z,4.05
2022-09-13T04:08:09.289Z,4.22
2022-09-13T04:10:14.654Z,4.10
2022-09-13T04:12:20.726Z,4.13
2022-09-13T04:14:26.977Z,4.18
2022-09-13T04:16:31.298Z,4.07
2022-09-13T04:18:36.113Z,3.85
2022-09-13T04:20:40.359Z,3.60
2022-09-13T04:22:45.679Z,3.30
2022-09-13T04:24:49.451Z,3.40
2022-09-13T04:26:53.377Z,3.70
2022-09-13T04:28:57.116Z,4.18
2022-09-13T04:31:00.611Z,3.45
2022-09-13T04:33:04.195Z,3.80
2022-09-13T04:35:08.560Z,3.60
2022-09-13T04:37:12.387Z,3.78
2022-09-13T04:39:17.201Z,4.10
2022-09-13T04:41:20.830Z,4.32
2022-09-13T04:43:24.858Z,4.28
2022-09-13T04:45:28.627Z,4.45
2022-09-13T04:47:32.337Z,3.83
2022-09-13T04:49:36.048Z,3.92
2022-09-13T04:51:39.633Z,3.92
2022-09-13T04:53:43.255Z,3.72
2022-09-13T04:55:48.095Z,4.05
2022-09-13T04:57:55.915Z,4.78
2022-09-13T04:59:59.367Z,4.20
2022-09-13T05:02:02.900Z,4.40
2022-09-13T05:04:08.005Z,3.90
2022-09-13T05:06:14.319Z,4.07
2022-09-13T05:08:17.858Z,4.10
2022-09-13T05:10:21.727Z,3.47
2022-09-13T05:12:26.574Z,3.50
2022-09-13T05:14:30.063Z,4.00
2022-09-13T05:16:35.307Z,4.40
2022-09-13T05:18:42.034Z,4.65
2022-09-13T05:20:48.556Z,5.05
2022-09-13T05:22:52.121Z,4.43
2022-09-13T05:24:56.155Z,4.97
2022-09-13T05:26:59.938Z,4.53
2022-09-13T05:29:06.089Z,5.45
2022-09-13T05:31:14.306Z,4.10
2022-09-13T05:33:17.673Z,4.28
2022-09-13T05:35:21.307Z,4.57
2022-09-13T05:37:24.779Z,4.30
2022-09-13T05:39:36.377Z,4.18
2022-09-13T05:41:47.638Z,4.72
2022-09-13T05:43:54.135Z,3.70
2022-09-13T05:46:05.250Z,3.88
2022-09-13T05:48:08.902Z,4.22
2022-09-13T05:50:27.244Z,4.03
2022-09-13T05:52:36.302Z,3.17
2022-09-13T05:54:39.847Z,3.53
2022-09-13T05:56:43.469Z,3.30
2022-09-13T05:58:49.427Z,3.55
2022-09-13T06:00:55.476Z,3.45
2022-09-13T06:03:00.948Z,3.78
2022-09-13T06:05:04.644Z,4.07
2022-09-13T06:07:08.110Z,4.13
2022-09-13T06:09:13.428Z,3.88
2022-09-13T06:11:17.027Z,3.67
2022-09-13T06:13:20.342Z,3.90
2022-09-13T06:15:23.799Z,4.03
2022-09-13T06:17:27.388Z,4.03
2022-09-13T06:19:32.289Z,3.70
2022-09-13T06:21:36.270Z,3.88
2022-09-13T06:23:40.076Z,3.70
2022-09-13T06:25:44.400Z,4.22
2022-09-13T06:27:50.003Z,3.75
2022-09-13T06:29:54.616Z,3.75
2022-09-13T06:31:58.290Z,3.83
2022-09-13T06:34:03.581Z,4.35
2022-09-13T06:36:10.730Z,4.20
2022-09-13T06:38:14.163Z,4.45
2022-09-13T06:40:21.802Z,4.10
2022-09-13T06:42:28.019Z,4.90
2022-09-13T06:44:31.372Z,4.57
2022-09-13T06:46:37.085Z,5.60
2022-09-13T06:48:42.126Z,4.00
2022-09-13T06:50:45.916Z,4.65
2022-09-13T06:52:50.585Z,5.97
2022-09-13T06:54:53.912Z,3.83
2022-09-13T06:57:04.742Z,5.05
2022-09-13T06:59:10.590Z,5.38
2022-09-13T07:01:16.361Z,4.57
2022-09-13T07:03:20.355Z,4.45
2022-09-13T07:05:24.503Z,4.22
2022-09-13T07:07:28.751Z,4.35
2022-09-13T07:09:34.495Z,3.75
2022-09-13T07:11:40.710Z,4.65
2022-09-13T07:13:44.857Z,5.00
2022-09-13T07:15:48.808Z,4.30
2022-09-13T07:17:52.395Z,3.35
2022-09-13T07:19:55.979Z,3.35
2022-09-13T07:22:00.148Z,10.35
2022-09-13T07:24:04.450Z,4.38
2022-09-13T07:26:10.065Z,4.20
2022-09-13T07:28:13.817Z,3.40
2022-09-13T07:30:17.114Z,3.55
2022-09-13T07:32:21.278Z,3.75
2022-09-13T07:34:26.863Z,3.33
2022-09-13T07:36:33.076Z,3.47
2022-09-13T07:38:37.900Z,3.30
2022-09-13T07:40:41.708Z,3.28
2022-09-13T07:42:47.025Z,3.00
2022-09-13T07:44:50.848Z,2.70
2022-09-13T07:46:54.640Z,3.25
2022-09-13T07:48:59.249Z,2.80
2022-09-13T07:51:04.979Z,3.08
2022-09-13T07:53:08.826Z,2.92
2022-09-13T07:55:12.573Z,3.25
2022-09-13T07:57:16.487Z,2.70
2022-09-13T07:59:21.631Z,3.30
2022-09-13T08:01:27.473Z,3.00
2022-09-13T08:03:31.669Z,3.10
2022-09-13T08:05:40.755Z,3.15
2022-09-13T08:07:44.780Z,2.80
2022-09-13T08:09:48.738Z,2.60
2022-09-13T08:11:53.657Z,3.17
2022-09-13T08:13:58.436Z,3.53
2022-09-13T08:16:06.685Z,3.40
2022-09-13T08:18:10.866Z,4.22
2022-09-13T08:20:14.863Z,3.22
2022-09-13T08:22:19.123Z,5.45
2022-09-13T08:24:23.470Z,3.80
2022-09-13T08:26:27.773Z,3.75
2022-09-13T08:28:32.898Z,3.40
2022-09-13T08:30:37.467Z,3.20
2022-09-13T08:32:42.753Z,3.72
2022-09-13T08:34:47.057Z,2.83
2022-09-13T08:36:50.930Z,3.03
2022-09-13T08:38:58.015Z,3.17
2022-09-13T08:41:06.651Z,3.03
2022-09-13T08:43:24.012Z,2.67
2022-09-13T08:45:27.735Z,3.15
2022-09-13T08:47:45.112Z,3.58
2022-09-13T08:49:52.396Z,3.53
2022-09-13T08:52:00.413Z,3.63
2022-09-13T08:54:04.986Z,3.15
2022-09-13T08:56:13.027Z,3.22
2022-09-13T08:58:32.209Z,3.55
2022-09-13T09:00:41.427Z,3.53
2022-09-13T09:03:03.540Z,3.50
2022-09-13T09:05:16.936Z,3.45
2022-09-13T09:07:25.776Z,3.88
2022-09-13T09:09:41.844Z,3.35
2022-09-13T09:11:52.547Z,3.35
2022-09-13T09:14:05.387Z,3.38
2022-09-13T09:16:21.241Z,3.53
2022-09-13T09:18:32.991Z,3.60
2022-09-13T09:20:42.691Z,2.80
2022-09-13T09:22:48.952Z,2.58
2022-09-13T09:24:56.495Z,2.60
2022-09-13T09:27:03.482Z,2.97
2022-09-13T09:29:20.678Z,3.22
2022-09-13T09:31:37.484Z,2.92
2022-09-13T09:33:55.393Z,3.55
2022-09-13T09:36:07.401Z,3.15
2022-09-13T09:38:31.755Z,3.20
2022-09-13T09:40:38.632Z,2.97
2022-09-13T09:42:45.255Z,2.90
2022-09-13T09:44:53.062Z,3.63
2022-09-13T09:47:01.309Z,3.10
2022-09-13T09:49:37.249Z,3.10
2022-09-13T09:51:42.078Z,3.10
2022-09-13T09:53:49.132Z,2.70
2022-09-13T09:55:57.662Z,3.95
2022-09-13T09:58:04.651Z,2.05
2022-09-13T10:00:15.008Z,1.35
2022-09-13T10:02:21.862Z,1.58
2022-09-13T10:04:27.685Z,1.40
2022-09-13T10:06:32.877Z,3.60
2022-09-13T10:08:39.853Z,1.63
2022-09-13T10:10:46.265Z,2.78
2022-09-13T10:12:54.378Z,1.77
2022-09-13T10:15:07.241Z,2.30
2022-09-13T10:17:21.911Z,1.30
2022-09-13T10:19:28.670Z,1.98
2022-09-13T10:21:32.723Z,1.38
2022-09-13T10:23:38.053Z,1.67
2022-09-13T10:25:47.866Z,1.30
2022-09-13T10:27:57.186Z,1.58
2022-09-13T10:30:04.191Z,1.85
2022-09-13T10:32:13.203Z,1.05
2022-09-13T10:34:22.642Z,1.20
2022-09-13T10:36:51.668Z,1.70
2022-09-13T10:39:01.024Z,2.83
2022-09-13T10:41:10.040Z,3.28
2022-09-13T10:43:20.508Z,2.13
2022-09-13T10:45:26.836Z,1.90
2022-09-13T10:47:36.128Z,1.60
2022-09-13T10:49:44.418Z,1.52
2022-09-13T10:51:49.995Z,1.40
2022-09-13T10:54:08.857Z,1.42
2022-09-13T10:56:23.202Z,1.08
2022-09-13T10:58:27.151Z,2.03
2022-09-13T11:00:41.025Z,1.80
2022-09-13T11:02:57.372Z,1.75
2022-09-13T11:05:22.862Z,1.63
2022-09-13T11:07:45.683Z,1.30
2022-09-13T11:09:58.422Z,2.65
2022-09-13T11:12:12.117Z,1.75
2022-09-13T11:14:29.051Z,1.33
2022-09-13T11:16:46.395Z,1.77
2022-09-13T11:19:18.931Z,1.70
2022-09-13T11:21:44.084Z,1.30
2022-09-13T11:24:04.560Z,1.25
2022-09-13T11:26:25.770Z,1.63
2022-09-13T11:28:42.537Z,1.85
2022-09-13T11:31:04.654Z,1.83
2022-09-13T11:33:24.924Z,1.40
2022-09-13T11:35:44.569Z,1.40
2022-09-13T11:37:59.413Z,1.38
2022-09-13T11:40:24.310Z,1.48
2022-09-13T11:42:41.995Z,1.20
2022-09-13T11:45:30.139Z,1.60
2022-09-13T11:47:48.790Z,1.23
2022-09-13T11:50:11.823Z,1.30
2022-09-13T11:52:31.333Z,1.85
2022-09-13T11:54:53.866Z,1.33
2022-09-13T11:57:04.425Z,2.40
2022-09-13T11:59:20.141Z,1.70
2022-09-13T12:01:29.624Z,1.40
2022-09-13T12:03:41.497Z,2.42
2022-09-13T12:05:49.572Z,1.50
2022-09-13T12:07:58.351Z,1.77
2022-09-13T12:10:07.820Z,1.20
2022-09-13T12:12:15.674Z,1.35
2022-09-13T12:14:23.893Z,0.90
2022-09-13T12:16:36.024Z,1.42
2022-09-13T12:18:46.172Z,1.60
2022-09-13T12:20:53.122Z,0.93
2022-09-13T12:23:00.011Z,1.50
2022-09-13T12:25:08.152Z,1.27
2022-09-13T12:27:23.670Z,0.90
2022-09-13T12:29:36.878Z,1.27
2022-09-13T12:33:48.465Z,1.20
2022-09-13T12:36:32.984Z,1.20
2022-09-13T12:39:11.895Z,1.33
2022-09-13T12:41:38.120Z,1.17
2022-09-13T12:43:58.949Z,1.48
2022-09-13T12:46:28.513Z,1.20
2022-09-13T12:48:55.967Z,1.33
2022-09-13T12:51:10.430Z,1.20
2022-09-13T12:53:36.189Z,1.40
2022-09-13T12:56:11.537Z,1.20
2022-09-13T12:58:32.705Z,1.77
2022-09-13T13:00:43.711Z,2.42
2022-09-13T13:02:59.966Z,1.60
2022-09-13T13:05:07.707Z,1.50
2022-09-13T13:07:23.048Z,1.30
2022-09-13T13:09:39.032Z,1.45
2022-09-13T13:11:47.500Z,1.30
2022-09-13T13:13:58.883Z,1.20
2022-09-13T13:16:23.321Z,1.20
2022-09-13T13:18:31.768Z,2.00
2022-09-13T13:21:09.779Z,1.50
2022-09-13T13:23:23.939Z,2.05
2022-09-13T13:25:36.237Z,1.40
2022-09-13T13:27:48.627Z,1.60
2022-09-13T13:30:54.666Z,1.42
2022-09-13T13:33:19.403Z,1.23
2022-09-13T13:35:32.621Z,1.00
2022-09-13T13:39:44.704Z,1.02
2022-09-13T13:41:56.287Z,1.02
2022-09-13T13:44:00.715Z,1.35
2022-09-13T13:46:28.434Z,1.10
2022-09-13T13:48:42.377Z,1.50
2022-09-13T13:51:19.600Z,2.10
2022-09-13T13:53:35.143Z,1.20
2022-09-13T13:55:47.656Z,1.20
2022-09-13T13:58:01.371Z,1.75
2022-09-13T14:00:16.298Z,1.10
2022-09-13T14:02:24.827Z,1.42
2022-09-13T14:04:59.382Z,1.48
2022-09-13T14:07:21.309Z,1.10
2022-09-13T14:09:36.934Z,1.27
2022-09-13T14:11:53.808Z,1.50
2022-09-13T14:14:13.841Z,1.70
2022-09-13T14:16:35.739Z,1.15
2022-09-13T14:19:24.605Z,1.40
2022-09-13T14:21:31.928Z,1.35
2022-09-13T14:23:36.272Z,1.75
2022-09-13T14:25:40.967Z,1.40
2022-09-13T14:27:46.172Z,1.30
2022-09-13T14:29:52.494Z,1.55
2022-09-13T14:32:03.990Z,1.10
2022-09-13T14:34:08.222Z,1.30
2022-09-13T14:36:20.546Z,1.17
2022-09-13T14:38:33.246Z,1.40
2022-09-13T14:40:37.933Z,1.48
2022-09-13T14:42:42.953Z,1.50
2022-09-13T14:44:47.423Z,1.40
2022-09-13T14:46:56.377Z,0.98
2022-09-13T14:49:03.946Z,1.27
2022-09-13T14:51:15.643Z,1.35
2022-09-13T14:53:23.551Z,1.67
2022-09-13T14:55:32.519Z,1.42
2022-09-13T14:57:40.544Z,1.33
2022-09-13T14:59:48.414Z,1.15
2022-09-13T15:01:52.179Z,1.10
2022-09-13T15:03:59.797Z,20.63
2022-09-13T15:06:06.382Z,1.55
2022-09-13T15:08:41.449Z,1.30
2022-09-13T15:10:47.048Z,1.30
2022-09-13T15:12:53.161Z,1.23
2022-09-13T15:15:22.698Z,1.40
2022-09-13T15:17:26.431Z,1.45
2022-09-13T15:19:36.712Z,1.60
2022-09-13T15:21:40.418Z,1.70
2022-09-13T15:23:50.514Z,1.33
2022-09-13T15:25:58.379Z,1.55
2022-09-13T15:28:02.065Z,1.50
2022-09-13T15:30:07.854Z,1.17
2022-09-13T15:32:23.190Z,1.17
2022-09-13T15:34:28.498Z,1.73
2022-09-13T15:36:32.564Z,1.50
2022-09-13T15:38:36.879Z,1.10
2022-09-13T15:40:45.374Z,1.50
2022-09-13T15:42:54.459Z,1.67
2022-09-13T15:44:58.918Z,1.42
2022-09-13T15:47:05.176Z,1.60
2022-09-13T15:49:09.363Z,1.40
2022-09-13T15:51:15.683Z,1.55
2022-09-13T15:53:19.961Z,2.00
2022-09-13T15:55:24.584Z,1.40
2022-09-13T15:57:30.792Z,1.50
2022-09-13T15:59:36.409Z,2.22
2022-09-13T16:01:40.787Z,1.42
2022-09-13T16:03:45.266Z,1.58
2022-09-13T16:05:49.323Z,1.45
2022-09-13T16:07:55.192Z,1.40
2022-09-13T16:10:00.097Z,1.55
2022-09-13T16:12:04.872Z,1.50
2022-09-13T16:14:09.029Z,1.73
2022-09-13T16:16:16.905Z,1.30
2022-09-13T16:18:20.862Z,1.50
2022-09-13T16:20:25.021Z,1.60
2022-09-13T16:22:29.028Z,1.50
2022-09-13T16:24:32.923Z,1.30
2022-09-13T16:26:36.842Z,1.20
2022-09-13T16:28:41.633Z,1.80
2022-09-13T16:30:45.796Z,1.90
2022-09-13T16:32:51.418Z,1.70
2022-09-13T16:34:55.604Z,2.72
2022-09-13T16:36:59.788Z,2.00
2022-09-13T16:39:03.996Z,2.13
2022-09-13T16:41:08.931Z,1.95
2022-09-13T16:43:14.197Z,1.90
2022-09-13T16:45:18.744Z,2.15
2022-09-13T16:47:23.334Z,2.33
2022-09-13T16:49:29.519Z,2.00
2022-09-13T16:51:34.853Z,1.83
2022-09-13T16:53:41.633Z,1.90
2022-09-13T16:55:46.435Z,2.13
2022-09-13T16:57:52.674Z,2.30
2022-09-13T16:59:58.674Z,2.45
2022-09-13T17:02:02.835Z,2.35
2022-09-13T17:04:08.547Z,1.90
2022-09-13T17:06:16.461Z,1.88
2022-09-13T17:08:20.587Z,1.63
2022-09-13T17:10:25.676Z,1.95
2022-09-13T17:12:30.250Z,2.15
2022-09-13T17:14:34.701Z,1.83
2022-09-13T17:16:43.013Z,1.83
2022-09-13T17:18:47.498Z,2.10
2022-09-13T17:20:52.134Z,2.03
2022-09-13T17:22:57.499Z,2.55
2022-09-13T17:25:02.265Z,2.50
2022-09-13T17:27:07.121Z,2.58
2022-09-13T17:29:13.539Z,2.05
2022-09-13T17:31:17.562Z,1.70
2022-09-13T17:33:21.820Z,3.10
2022-09-13T17:35:25.865Z,3.40
2022-09-13T17:37:29.772Z,3.95
2022-09-13T17:39:34.902Z,1.73
2022-09-13T17:41:39.370Z,4.15
2022-09-13T17:43:44.345Z,1.70
2022-09-13T17:45:47.998Z,1.55
2022-09-13T17:47:54.689Z,1.55
2022-09-13T17:49:58.593Z,1.55
2022-09-13T17:52:02.551Z,2.05
2022-09-13T17:54:10.010Z,2.00
2022-09-13T17:56:21.558Z,1.75
2022-09-13T17:58:27.258Z,1.92
2022-09-13T18:00:31.810Z,2.03
2022-09-13T18:02:35.488Z,1.95
2022-09-13T18:04:39.448Z,2.17
2022-09-13T18:06:44.771Z,2.15
2022-09-13T18:08:48.962Z,2.30
2022-09-13T18:11:12.162Z,2.28
2022-09-13T18:13:18.482Z,2.17
2022-09-13T18:15:22.362Z,1.90
2022-09-13T18:17:26.159Z,1.92
2022-09-13T18:19:45.314Z,2.42
2022-09-13T18:21:49.350Z,8.60
2022-09-13T18:23:56.152Z,2.30
2022-09-13T18:26:03.012Z,3.15
2022-09-13T18:28:08.855Z,2.60
2022-09-13T18:30:14.799Z,2.17
2022-09-13T18:32:18.872Z,2.67
2022-09-13T18:34:27.435Z,2.08
2022-09-13T18:36:33.950Z,1.95
2022-09-13T18:38:39.373Z,2.20
2022-09-13T18:40:43.546Z,2.33
2022-09-13T18:42:47.824Z,2.00
2022-09-13T18:44:52.950Z,2.28
2022-09-13T18:46:58.491Z,2.10
2022-09-13T18:49:03.904Z,2.38
2022-09-13T18:51:10.162Z,2.30
2022-09-13T18:53:14.179Z,4.70
2022-09-13T18:55:18.167Z,15.25
2022-09-13T18:57:22.163Z,8.32
2022-09-13T18:59:26.343Z,15.63
2022-09-13T19:01:32.091Z,15.23
2022-09-13T19:03:40.492Z,6.80
2022-09-13T19:05:44.520Z,4.57
2022-09-13T19:07:48.395Z,4.15
2022-09-13T19:09:52.690Z,4.35
2022-09-13T19:11:56.387Z,4.32
2022-09-13T19:14:00.490Z,4.47
2022-09-13T19:16:07.916Z,5.00
2022-09-13T19:18:12.018Z,6.47
2022-09-13T19:20:17.827Z,4.95
2022-09-13T19:22:21.982Z,5.00
2022-09-13T19:24:26.702Z,4.70
2022-09-13T19:26:32.974Z,4.43
2022-09-13T19:28:36.798Z,5.90
2022-09-13T19:30:40.846Z,4.90
2022-09-13T19:32:44.926Z,5.72
2022-09-13T19:34:49.105Z,4.18
2022-09-13T19:36:58.310Z,4.40
2022-09-13T19:39:02.637Z,4.28
2022-09-13T19:41:09.262Z,3.83
2022-09-13T19:43:13.289Z,4.55
2022-09-13T19:45:17.669Z,4.85
2022-09-13T19:48:19.389Z,5.57
2022-09-13T19:49:49.928Z,5.55
2022-09-13T19:51:55.116Z,7.50
2022-09-13T19:54:00.041Z,9.77
2022-09-13T19:56:06.882Z,10.77
2022-09-13T19:58:10.974Z,10.77
2022-09-13T20:00:15.391Z,8.45
2022-09-13T20:02:19.771Z,7.80
2022-09-13T20:04:24.999Z,8.75
2022-09-13T20:06:30.460Z,9.73
2022-09-13T20:08:36.823Z,10.45
2022-09-13T20:10:40.790Z,10.02
2022-09-13T20:12:45.337Z,8.73
2022-09-13T20:14:49.188Z,8.73
2022-09-13T20:16:54.566Z,13.00
2022-09-13T20:18:58.551Z,16.40
2022-09-13T20:21:05.158Z,14.88
2022-09-13T20:23:08.957Z,17.45
2022-09-13T20:25:14.238Z,16.30
2022-09-13T20:27:19.118Z,17.70
2022-09-13T20:29:22.931Z,15.98
2022-09-13T20:31:27.655Z,14.20
2022-09-13T20:33:31.421Z,14.77
2022-09-13T20:35:38.115Z,15.02
2022-09-13T20:37:41.647Z,12.50
2022-09-13T20:39:45.671Z,12.52
2022-09-13T20:41:51.625Z,11.38
2022-09-13T20:43:56.250Z,14.60
2022-09-13T20:46:01.167Z,12.45
2022-09-13T20:48:05.593Z,12.25
2022-09-13T20:50:10.246Z,15.48
2022-09-13T20:52:14.838Z,15.85
2022-09-13T20:54:19.187Z,15.05
2022-09-13T20:56:24.016Z,12.93
2022-09-13T20:58:30.236Z,13.85
2022-09-13T21:00:34.555Z,14.70
2022-09-13T21:02:38.857Z,18.50
2022-09-13T21:04:42.803Z,21.73
2022-09-13T21:07:00.778Z,18.40
2022-09-13T21:09:05.059Z,19.52
2022-09-13T21:11:11.180Z,18.73
2022-09-13T21:13:15.570Z,17.75
2022-09-13T21:15:22.371Z,15.68
2022-09-13T21:17:27.211Z,14.80
2022-09-13T21:19:31.815Z,13.48
2022-09-13T21:21:38.620Z,12.65
2022-09-13T21:23:43.211Z,11.57
2022-09-13T21:25:47.480Z,12.38
2022-09-13T21:27:52.316Z,9.35
2022-09-13T21:29:56.904Z,9.05
2022-09-13T21:32:02.710Z,7.93
2022-09-13T21:34:08.869Z,7.50
2022-09-13T21:36:14.128Z,6.95
2022-09-13T21:38:18.760Z,7.25
2022-09-13T21:40:23.414Z,6.45
2022-09-13T21:42:28.584Z,6.78
2022-09-13T21:44:33.018Z,7.65
2022-09-13T21:46:39.005Z,8.02
2022-09-13T21:48:47.005Z,7.85
2022-09-13T21:50:51.904Z,7.38
2022-09-13T21:52:56.373Z,7.53
2022-09-13T21:55:00.487Z,7.10
2022-09-13T21:57:04.488Z,8.40
2022-09-13T21:59:10.828Z,8.20
2022-09-13T22:01:17.405Z,8.32
2022-09-13T22:03:21.965Z,7.35
2022-09-13T22:05:27.691Z,7.60
2022-09-13T22:07:33.826Z,8.90
2022-09-13T22:09:38.039Z,7.55
2022-09-13T22:11:43.958Z,7.65
2022-09-13T22:13:49.308Z,6.75
2022-09-13T22:15:53.498Z,8.40
2022-09-13T22:17:58.057Z,7.15
2022-09-13T22:20:02.186Z,8.73
2022-09-13T22:22:07.970Z,6.80
2022-09-13T22:24:16.335Z,6.80
2022-09-13T22:26:22.830Z,7.30
2022-09-13T22:28:27.433Z,7.32
2022-09-13T22:30:32.984Z,7.05
2022-09-13T22:32:37.740Z,7.35
2022-09-13T22:34:41.746Z,8.45
2022-09-13T22:36:46.678Z,8.90
2022-09-13T22:38:55.028Z,9.15
2022-09-13T22:41:00.800Z,7.05
2022-09-13T22:43:05.061Z,8.57
2022-09-13T22:45:09.895Z,7.70
2022-09-13T22:47:14.353Z,8.40
2022-09-13T22:49:20.651Z,8.63
2022-09-13T22:51:24.801Z,7.55
2022-09-13T22:53:30.364Z,7.40
2022-09-13T22:55:37.116Z,7.13
2022-09-13T22:57:41.158Z,7.40
2022-09-13T22:59:45.181Z,7.20
2022-09-13T23:01:50.196Z,7.28
2022-09-13T23:03:55.064Z,7.50
2022-09-13T23:05:59.541Z,8.70
2022-09-13T23:08:05.074Z,6.70
2022-09-13T23:10:10.685Z,7.10
2022-09-13T23:12:16.415Z,7.00
2022-09-13T23:14:21.769Z,7.22
2022-09-13T23:16:27.466Z,7.22
2022-09-13T23:18:33.413Z,7.28
2022-09-13T23:20:37.955Z,6.43
2022-09-13T23:22:42.924Z,7.20
2022-09-13T23:24:46.805Z,6.75
2022-09-13T23:26:50.736Z,6.95
2022-09-13T23:29:02.087Z,6.68
2022-09-13T23:31:11.701Z,8.13
2022-09-13T23:33:17.388Z,6.97
2022-09-13T23:35:21.572Z,6.70
2022-09-13T23:37:25.398Z,7.85
2022-09-13T23:39:30.091Z,7.18
2022-09-13T23:41:34.680Z,7.07
2022-09-13T23:43:38.774Z,7.57
2022-09-13T23:45:44.717Z,6.22
2022-09-13T23:47:48.311Z,6.10
2022-09-13T23:49:52.263Z,6.45
2022-09-13T23:51:55.781Z,7.78
2022-09-13T23:54:01.236Z,6.15
2022-09-13T23:56:05.737Z,6.75
2022-09-13T23:58:09.697Z,6.97
